sensor_id;sensor_type;location;lat;lon;timestamp;P1;durP1;ratioP1;P2;durP2;ratioP2
55328;SDS011;41205;44.264;19.884;2023-02-03T00:01:13;191.70;;;79.43;;
55328;SDS011;41205;44.264;19.884;2023-02-03T00:03:39;15.15;;;6.38;;
55328;SDS011;41205;44.264;19.884;2023-02-03T00:06:05;8.50;;;3.20;;
55328;SDS011;41205;44.264;19.884;2023-02-03T00:08:31;57.53;;;24.95;;
55328;SDS011;41205;44.264;19.884;2023-02-03T00:10:57;40.80;;;17.48;;
55328;SDS011;41205;44.264;19.884;2023-02-03T00:13:23;28.92;;;11.88;;
55328;SDS011;41205;44.264;19.884;2023-02-03T00:15:50;7.53;;;3.20;;
55328;SDS011;41205;44.264;19.884;2023-02-03T00:18:16;110.45;;;46.75;;
55328;SDS011;41205;44.264;19.884;2023-02-03T00:20:42;156.05;;;69.68;;
55328;SDS011;41205;44.264;19.884;2023-02-03T00:23:08;10.38;;;4.47;;
55328;SDS011;41205;44.264;19.884;2023-02-03T00:25:35;20.50;;;9.77;;
55328;SDS011;41205;44.264;19.884;2023-02-03T00:28:01;21.35;;;5.95;;
55328;SDS011;41205;44.264;19.884;2023-02-03T00:30:27;11.43;;;3.53;;
55328;SDS011;41205;44.264;19.884;2023-02-03T00:32:53;13.43;;;6.50;;
55328;SDS011;41205;44.264;19.884;2023-02-03T00:35:18;38.90;;;18.60;;
55328;SDS011;41205;44.264;19.884;2023-02-03T00:37:49;110.20;;;54.97;;
55328;SDS011;41205;44.264;19.884;2023-02-03T00:40:17;11.13;;;5.13;;
55328;SDS011;41205;44.264;19.884;2023-02-03T00:42:44;33.10;;;14.00;;
55328;SDS011;41205;44.264;19.884;2023-02-03T00:45:09;29.85;;;12.48;;
55328;SDS011;41205;44.264;19.884;2023-02-03T00:47:35;15.48;;;7.20;;
55328;SDS011;41205;44.264;19.884;2023-02-03T00:50:01;6.60;;;3.17;;
55328;SDS011;41205;44.264;19.884;2023-02-03T00:52:27;59.30;;;28.13;;
55328;SDS011;41205;44.264;19.884;2023-02-03T00:54:52;12.30;;;5.50;;
55328;SDS011;41205;44.264;19.884;2023-02-03T00:57:18;9.10;;;4.80;;
55328;SDS011;41205;44.264;19.884;2023-02-03T00:59:44;30.80;;;13.93;;
55328;SDS011;41205;44.264;19.884;2023-02-03T01:02:09;16.45;;;7.75;;
55328;SDS011;41205;44.264;19.884;2023-02-03T01:04:35;7.15;;;5.18;;
55328;SDS011;41205;44.264;19.884;2023-02-03T01:07:01;65.75;;;29.00;;
55328;SDS011;41205;44.264;19.884;2023-02-03T01:09:27;8.27;;;4.88;;
55328;SDS011;41205;44.264;19.884;2023-02-03T01:11:52;12.63;;;7.00;;
55328;SDS011;41205;44.264;19.884;2023-02-03T01:14:18;12.32;;;5.88;;
55328;SDS011;41205;44.264;19.884;2023-02-03T01:16:44;6.03;;;3.75;;
55328;SDS011;41205;44.264;19.884;2023-02-03T01:19:10;26.42;;;11.68;;
55328;SDS011;41205;44.264;19.884;2023-02-03T01:21:35;28.83;;;11.38;;
55328;SDS011;41205;44.264;19.884;2023-02-03T01:24:01;25.98;;;12.45;;
55328;SDS011;41205;44.264;19.884;2023-02-03T01:26:27;21.33;;;10.85;;
55328;SDS011;41205;44.264;19.884;2023-02-03T01:28:53;9.93;;;4.20;;
55328;SDS011;41205;44.264;19.884;2023-02-03T01:31:24;11.15;;;5.57;;
55328;SDS011;41205;44.264;19.884;2023-02-03T01:33:55;10.07;;;4.20;;
55328;SDS011;41205;44.264;19.884;2023-02-03T01:36:23;6.97;;;3.75;;
55328;SDS011;41205;44.264;19.884;2023-02-03T01:38:49;8.98;;;4.35;;
55328;SDS011;41205;44.264;19.884;2023-02-03T01:41:17;9.82;;;3.97;;
55328;SDS011;41205;44.264;19.884;2023-02-03T01:43:46;17.58;;;7.28;;
55328;SDS011;41205;44.264;19.884;2023-02-03T01:49:09;36.45;;;19.05;;
55328;SDS011;41205;44.264;19.884;2023-02-03T01:51:38;15.10;;;6.40;;
55328;SDS011;41205;44.264;19.884;2023-02-03T01:54:06;19.13;;;9.30;;
55328;SDS011;41205;44.264;19.884;2023-02-03T01:56:35;13.52;;;6.90;;
55328;SDS011;41205;44.264;19.884;2023-02-03T01:59:04;10.20;;;5.00;;
55328;SDS011;41205;44.264;19.884;2023-02-03T02:01:30;9.93;;;5.22;;
55328;SDS011;41205;44.264;19.884;2023-02-03T02:03:58;13.13;;;7.07;;
55328;SDS011;41205;44.264;19.884;2023-02-03T02:06:26;5.45;;;3.40;;
55328;SDS011;41205;44.264;19.884;2023-02-03T02:08:52;7.10;;;3.53;;
55328;SDS011;41205;44.264;19.884;2023-02-03T02:11:19;5.93;;;3.35;;
55328;SDS011;41205;44.264;19.884;2023-02-03T02:13:45;20.35;;;9.73;;
55328;SDS011;41205;44.264;19.884;2023-02-03T02:21:51;6.07;;;3.53;;
55328;SDS011;41205;44.264;19.884;2023-02-03T02:29:41;15.25;;;5.88;;
55328;SDS011;41205;44.264;19.884;2023-02-03T02:32:29;9.23;;;4.53;;
55328;SDS011;41205;44.264;19.884;2023-02-03T02:35:00;13.10;;;6.43;;
55328;SDS011;41205;44.264;19.884;2023-02-03T02:37:58;6.80;;;3.83;;
55328;SDS011;41205;44.264;19.884;2023-02-03T02:45:48;26.23;;;10.52;;
55328;SDS011;41205;44.264;19.884;2023-02-03T02:48:27;61.88;;;27.08;;
55328;SDS011;41205;44.264;19.884;2023-02-03T02:51:03;10.05;;;4.95;;
55328;SDS011;41205;44.264;19.884;2023-02-03T02:53:35;9.82;;;5.22;;
55328;SDS011;41205;44.264;19.884;2023-02-03T02:56:05;12.30;;;6.50;;
55328;SDS011;41205;44.264;19.884;2023-02-03T02:58:34;81.63;;;33.28;;
55328;SDS011;41205;44.264;19.884;2023-02-03T03:01:02;112.70;;;45.63;;
55328;SDS011;41205;44.264;19.884;2023-02-03T03:03:28;28.70;;;11.55;;
55328;SDS011;41205;44.264;19.884;2023-02-03T03:05:54;14.77;;;8.05;;
55328;SDS011;41205;44.264;19.884;2023-02-03T03:08:30;20.48;;;8.15;;
55328;SDS011;41205;44.264;19.884;2023-02-03T03:11:03;11.40;;;5.03;;
55328;SDS011;41205;44.264;19.884;2023-02-03T03:13:31;11.65;;;6.00;;
55328;SDS011;41205;44.264;19.884;2023-02-03T03:16:00;18.60;;;8.88;;
55328;SDS011;41205;44.264;19.884;2023-02-03T03:19:06;61.88;;;26.05;;
55328;SDS011;41205;44.264;19.884;2023-02-03T03:23:53;50.70;;;19.48;;
55328;SDS011;41205;44.264;19.884;2023-02-03T03:26:24;10.85;;;5.85;;
55328;SDS011;41205;44.264;19.884;2023-02-03T03:31:45;24.08;;;9.93;;
55328;SDS011;41205;44.264;19.884;2023-02-03T03:34:12;9.50;;;4.20;;
55328;SDS011;41205;44.264;19.884;2023-02-03T03:36:40;36.70;;;15.95;;
55328;SDS011;41205;44.264;19.884;2023-02-03T03:39:21;21.17;;;11.48;;
55328;SDS011;41205;44.264;19.884;2023-02-03T03:42:06;15.85;;;6.55;;
55328;SDS011;41205;44.264;19.884;2023-02-03T03:44:42;7.68;;;5.65;;
55328;SDS011;41205;44.264;19.884;2023-02-03T03:49:55;9.73;;;4.63;;
55328;SDS011;41205;44.264;19.884;2023-02-03T03:52:25;6.68;;;3.75;;
55328;SDS011;41205;44.264;19.884;2023-02-03T03:54:56;16.75;;;6.30;;
55328;SDS011;41205;44.264;19.884;2023-02-03T03:57:27;8.95;;;5.95;;
55328;SDS011;41205;44.264;19.884;2023-02-03T04:00:16;6.20;;;3.58;;
55328;SDS011;41205;44.264;19.884;2023-02-03T04:02:45;9.70;;;5.05;;
55328;SDS011;41205;44.264;19.884;2023-02-03T04:05:15;9.68;;;5.40;;
55328;SDS011;41205;44.264;19.884;2023-02-03T04:07:42;7.30;;;3.70;;
55328;SDS011;41205;44.264;19.884;2023-02-03T04:10:19;12.48;;;4.97;;
55328;SDS011;41205;44.264;19.884;2023-02-03T04:12:50;48.88;;;25.70;;
55328;SDS011;41205;44.264;19.884;2023-02-03T04:15:16;6.45;;;3.63;;
55328;SDS011;41205;44.264;19.884;2023-02-03T04:17:42;36.03;;;21.60;;
55328;SDS011;41205;44.264;19.884;2023-02-03T04:20:07;10.30;;;5.57;;
55328;SDS011;41205;44.264;19.884;2023-02-03T04:22:33;9.82;;;4.95;;
55328;SDS011;41205;44.264;19.884;2023-02-03T04:24:59;11.02;;;5.22;;
55328;SDS011;41205;44.264;19.884;2023-02-03T04:27:25;8.10;;;5.35;;
55328;SDS011;41205;44.264;19.884;2023-02-03T04:29:51;28.92;;;13.32;;
55328;SDS011;41205;44.264;19.884;2023-02-03T04:32:17;33.58;;;15.07;;
55328;SDS011;41205;44.264;19.884;2023-02-03T04:34:43;34.70;;;18.67;;
55328;SDS011;41205;44.264;19.884;2023-02-03T04:37:09;11.60;;;6.30;;
55328;SDS011;41205;44.264;19.884;2023-02-03T04:39:35;51.20;;;23.58;;
55328;SDS011;41205;44.264;19.884;2023-02-03T04:42:02;14.77;;;7.35;;
55328;SDS011;41205;44.264;19.884;2023-02-03T04:44:28;8.77;;;4.65;;
55328;SDS011;41205;44.264;19.884;2023-02-03T04:46:54;10.38;;;4.55;;
55328;SDS011;41205;44.264;19.884;2023-02-03T04:49:19;4.85;;;3.20;;
55328;SDS011;41205;44.264;19.884;2023-02-03T04:51:47;7.25;;;3.97;;
55328;SDS011;41205;44.264;19.884;2023-02-03T04:54:13;17.13;;;9.65;;
55328;SDS011;41205;44.264;19.884;2023-02-03T04:56:39;15.50;;;7.85;;
55328;SDS011;41205;44.264;19.884;2023-02-03T04:59:05;9.43;;;5.80;;
55328;SDS011;41205;44.264;19.884;2023-02-03T05:01:31;12.07;;;8.70;;
55328;SDS011;41205;44.264;19.884;2023-02-03T05:03:56;11.45;;;6.65;;
55328;SDS011;41205;44.264;19.884;2023-02-03T05:06:23;9.55;;;4.32;;
55328;SDS011;41205;44.264;19.884;2023-02-03T05:08:50;15.57;;;8.45;;
55328;SDS011;41205;44.264;19.884;2023-02-03T05:11:16;9.57;;;5.45;;
55328;SDS011;41205;44.264;19.884;2023-02-03T05:13:42;10.82;;;5.90;;
55328;SDS011;41205;44.264;19.884;2023-02-03T05:16:08;5.93;;;3.72;;
55328;SDS011;41205;44.264;19.884;2023-02-03T05:18:33;9.18;;;4.70;;
55328;SDS011;41205;44.264;19.884;2023-02-03T05:20:59;8.70;;;4.10;;
55328;SDS011;41205;44.264;19.884;2023-02-03T05:23:24;8.65;;;4.32;;
55328;SDS011;41205;44.264;19.884;2023-02-03T05:25:50;11.30;;;5.22;;
55328;SDS011;41205;44.264;19.884;2023-02-03T05:28:16;10.80;;;4.28;;
55328;SDS011;41205;44.264;19.884;2023-02-03T05:30:42;8.02;;;4.70;;
55328;SDS011;41205;44.264;19.884;2023-02-03T05:33:07;12.80;;;4.57;;
55328;SDS011;41205;44.264;19.884;2023-02-03T05:35:33;12.25;;;4.90;;
55328;SDS011;41205;44.264;19.884;2023-02-03T05:37:59;17.15;;;8.73;;
55328;SDS011;41205;44.264;19.884;2023-02-03T05:40:25;8.63;;;5.28;;
55328;SDS011;41205;44.264;19.884;2023-02-03T05:43:09;8.93;;;5.40;;
55328;SDS011;41205;44.264;19.884;2023-02-03T05:45:35;8.75;;;4.43;;
55328;SDS011;41205;44.264;19.884;2023-02-03T05:48:01;7.50;;;3.97;;
55328;SDS011;41205;44.264;19.884;2023-02-03T05:50:28;5.93;;;3.55;;
55328;SDS011;41205;44.264;19.884;2023-02-03T05:53:00;12.02;;;4.60;;
55328;SDS011;41205;44.264;19.884;2023-02-03T05:55:27;7.95;;;4.22;;
55328;SDS011;41205;44.264;19.884;2023-02-03T05:57:54;5.82;;;3.60;;
55328;SDS011;41205;44.264;19.884;2023-02-03T06:00:20;7.28;;;3.83;;
55328;SDS011;41205;44.264;19.884;2023-02-03T06:02:53;7.20;;;4.03;;
55328;SDS011;41205;44.264;19.884;2023-02-03T06:05:20;8.15;;;4.03;;
55328;SDS011;41205;44.264;19.884;2023-02-03T06:07:47;59.53;;;34.83;;
55328;SDS011;41205;44.264;19.884;2023-02-03T06:10:13;11.70;;;6.70;;
55328;SDS011;41205;44.264;19.884;2023-02-03T06:12:39;6.13;;;3.92;;
55328;SDS011;41205;44.264;19.884;2023-02-03T06:15:05;9.02;;;4.30;;
55328;SDS011;41205;44.264;19.884;2023-02-03T06:17:31;8.55;;;4.05;;
55328;SDS011;41205;44.264;19.884;2023-02-03T06:19:57;7.85;;;4.20;;
55328;SDS011;41205;44.264;19.884;2023-02-03T06:22:23;6.82;;;4.10;;
55328;SDS011;41205;44.264;19.884;2023-02-03T06:24:49;8.45;;;4.72;;
55328;SDS011;41205;44.264;19.884;2023-02-03T06:27:14;11.90;;;5.82;;
55328;SDS011;41205;44.264;19.884;2023-02-03T06:29:41;10.85;;;6.13;;
55328;SDS011;41205;44.264;19.884;2023-02-03T06:32:07;7.47;;;4.75;;
55328;SDS011;41205;44.264;19.884;2023-02-03T06:34:33;7.15;;;5.07;;
55328;SDS011;41205;44.264;19.884;2023-02-03T06:36:59;11.73;;;4.95;;
55328;SDS011;41205;44.264;19.884;2023-02-03T06:39:25;8.25;;;4.63;;
55328;SDS011;41205;44.264;19.884;2023-02-03T06:41:51;10.75;;;4.70;;
55328;SDS011;41205;44.264;19.884;2023-02-03T06:44:17;11.68;;;4.95;;
55328;SDS011;41205;44.264;19.884;2023-02-03T06:46:43;7.25;;;4.55;;
55328;SDS011;41205;44.264;19.884;2023-02-03T06:49:09;8.77;;;4.28;;
55328;SDS011;41205;44.264;19.884;2023-02-03T06:51:34;12.30;;;5.28;;
55328;SDS011;41205;44.264;19.884;2023-02-03T06:54:00;8.10;;;4.82;;
55328;SDS011;41205;44.264;19.884;2023-02-03T06:56:27;10.30;;;5.07;;
55328;SDS011;41205;44.264;19.884;2023-02-03T06:58:54;10.10;;;6.13;;
55328;SDS011;41205;44.264;19.884;2023-02-03T07:01:20;8.43;;;4.85;;
55328;SDS011;41205;44.264;19.884;2023-02-03T07:03:45;6.70;;;3.80;;
55328;SDS011;41205;44.264;19.884;2023-02-03T07:06:12;8.27;;;4.05;;
55328;SDS011;41205;44.264;19.884;2023-02-03T07:08:38;13.20;;;7.10;;
55328;SDS011;41205;44.264;19.884;2023-02-03T07:11:04;25.45;;;7.53;;
55328;SDS011;41205;44.264;19.884;2023-02-03T07:13:30;8.32;;;4.32;;
55328;SDS011;41205;44.264;19.884;2023-02-03T07:15:55;6.93;;;4.97;;
55328;SDS011;41205;44.264;19.884;2023-02-03T07:18:21;10.73;;;8.82;;
55328;SDS011;41205;44.264;19.884;2023-02-03T07:20:50;14.23;;;9.35;;
55328;SDS011;41205;44.264;19.884;2023-02-03T07:23:16;9.27;;;5.25;;
55328;SDS011;41205;44.264;19.884;2023-02-03T07:25:44;20.27;;;16.48;;
55328;SDS011;41205;44.264;19.884;2023-02-03T07:28:10;31.20;;;23.33;;
55328;SDS011;41205;44.264;19.884;2023-02-03T07:30:36;15.60;;;13.95;;
55328;SDS011;41205;44.264;19.884;2023-02-03T07:33:01;7.55;;;5.80;;
55328;SDS011;41205;44.264;19.884;2023-02-03T07:35:27;6.90;;;4.32;;
55328;SDS011;41205;44.264;19.884;2023-02-03T07:37:53;7.50;;;4.38;;
55328;SDS011;41205;44.264;19.884;2023-02-03T07:40:19;9.52;;;5.22;;
55328;SDS011;41205;44.264;19.884;2023-02-03T07:42:45;7.63;;;4.85;;
55328;SDS011;41205;44.264;19.884;2023-02-03T07:45:13;8.68;;;6.22;;
55328;SDS011;41205;44.264;19.884;2023-02-03T07:47:41;18.10;;;13.73;;
55328;SDS011;41205;44.264;19.884;2023-02-03T07:50:08;9.70;;;6.35;;
55328;SDS011;41205;44.264;19.884;2023-02-03T07:52:35;10.18;;;4.90;;
55328;SDS011;41205;44.264;19.884;2023-02-03T07:55:01;26.60;;;15.93;;
55328;SDS011;41205;44.264;19.884;2023-02-03T07:57:27;7.43;;;4.35;;
55328;SDS011;41205;44.264;19.884;2023-02-03T07:59:53;122.53;;;81.72;;
55328;SDS011;41205;44.264;19.884;2023-02-03T08:02:18;18.85;;;9.45;;
55328;SDS011;41205;44.264;19.884;2023-02-03T08:04:44;15.85;;;9.85;;
55328;SDS011;41205;44.264;19.884;2023-02-03T08:07:10;18.83;;;11.75;;
55328;SDS011;41205;44.264;19.884;2023-02-03T08:09:36;6.45;;;3.90;;
55328;SDS011;41205;44.264;19.884;2023-02-03T08:12:01;16.10;;;12.25;;
55328;SDS011;41205;44.264;19.884;2023-02-03T08:14:27;74.63;;;50.47;;
55328;SDS011;41205;44.264;19.884;2023-02-03T08:16:53;26.80;;;17.35;;
55328;SDS011;41205;44.264;19.884;2023-02-03T08:19:19;11.68;;;8.13;;
55328;SDS011;41205;44.264;19.884;2023-02-03T08:21:45;10.18;;;6.95;;
55328;SDS011;41205;44.264;19.884;2023-02-03T08:24:11;7.55;;;4.97;;
55328;SDS011;41205;44.264;19.884;2023-02-03T08:26:37;18.50;;;15.27;;
55328;SDS011;41205;44.264;19.884;2023-02-03T08:29:02;5.32;;;3.60;;
55328;SDS011;41205;44.264;19.884;2023-02-03T08:31:29;9.27;;;7.00;;
55328;SDS011;41205;44.264;19.884;2023-02-03T08:33:54;7.38;;;4.60;;
55328;SDS011;41205;44.264;19.884;2023-02-03T08:36:20;9.30;;;4.57;;
55328;SDS011;41205;44.264;19.884;2023-02-03T08:38:46;7.40;;;5.82;;
55328;SDS011;41205;44.264;19.884;2023-02-03T08:41:12;119.57;;;100.57;;
55328;SDS011;41205;44.264;19.884;2023-02-03T08:43:40;9.73;;;6.43;;
55328;SDS011;41205;44.264;19.884;2023-02-03T08:46:06;15.93;;;14.23;;
55328;SDS011;41205;44.264;19.884;2023-02-03T08:48:34;12.10;;;8.65;;
55328;SDS011;41205;44.264;19.884;2023-02-03T08:51:00;9.38;;;4.68;;
55328;SDS011;41205;44.264;19.884;2023-02-03T08:53:26;15.77;;;11.13;;
55328;SDS011;41205;44.264;19.884;2023-02-03T08:55:51;9.00;;;6.07;;
55328;SDS011;41205;44.264;19.884;2023-02-03T08:58:17;6.05;;;3.55;;
55328;SDS011;41205;44.264;19.884;2023-02-03T09:00:43;5.22;;;2.40;;
55328;SDS011;41205;44.264;19.884;2023-02-03T09:03:09;6.07;;;3.92;;
55328;SDS011;41205;44.264;19.884;2023-02-03T09:05:35;7.32;;;4.38;;
55328;SDS011;41205;44.264;19.884;2023-02-03T09:08:00;16.52;;;12.65;;
55328;SDS011;41205;44.264;19.884;2023-02-03T09:10:27;72.93;;;55.03;;
55328;SDS011;41205;44.264;19.884;2023-02-03T09:12:52;12.98;;;11.43;;
55328;SDS011;41205;44.264;19.884;2023-02-03T09:15:19;22.38;;;18.13;;
55328;SDS011;41205;44.264;19.884;2023-02-03T09:17:45;8.38;;;7.00;;
55328;SDS011;41205;44.264;19.884;2023-02-03T09:20:11;7.78;;;4.45;;
55328;SDS011;41205;44.264;19.884;2023-02-03T09:22:40;26.13;;;21.77;;
55328;SDS011;41205;44.264;19.884;2023-02-03T09:25:06;13.27;;;10.48;;
55328;SDS011;41205;44.264;19.884;2023-02-03T09:27:32;9.32;;;8.13;;
55328;SDS011;41205;44.264;19.884;2023-02-03T09:29:57;7.70;;;4.75;;
55328;SDS011;41205;44.264;19.884;2023-02-03T09:32:23;5.88;;;4.20;;
55328;SDS011;41205;44.264;19.884;2023-02-03T09:34:49;10.05;;;8.13;;
55328;SDS011;41205;44.264;19.884;2023-02-03T09:37:14;12.38;;;7.10;;
55328;SDS011;41205;44.264;19.884;2023-02-03T09:39:40;9.55;;;5.85;;
55328;SDS011;41205;44.264;19.884;2023-02-03T09:42:23;8.15;;;5.40;;
55328;SDS011;41205;44.264;19.884;2023-02-03T09:45:05;12.57;;;6.90;;
55328;SDS011;41205;44.264;19.884;2023-02-03T09:47:50;7.55;;;3.45;;
55328;SDS011;41205;44.264;19.884;2023-02-03T09:50:20;8.82;;;3.78;;
55328;SDS011;41205;44.264;19.884;2023-02-03T09:52:49;10.98;;;8.45;;
55328;SDS011;41205;44.264;19.884;2023-02-03T09:55:27;10.07;;;3.97;;
55328;SDS011;41205;44.264;19.884;2023-02-03T10:00:40;13.68;;;11.38;;
55328;SDS011;41205;44.264;19.884;2023-02-03T10:03:26;6.88;;;4.43;;
55328;SDS011;41205;44.264;19.884;2023-02-03T10:06:18;8.32;;;4.75;;
55328;SDS011;41205;44.264;19.884;2023-02-03T10:09:16;17.33;;;12.30;;
55328;SDS011;41205;44.264;19.884;2023-02-03T10:12:19;14.20;;;7.68;;
55328;SDS011;41205;44.264;19.884;2023-02-03T10:17:56;19.15;;;11.20;;
55328;SDS011;41205;44.264;19.884;2023-02-03T10:23:14;15.43;;;5.32;;
55328;SDS011;41205;44.264;19.884;2023-02-03T10:25:51;7.00;;;4.10;;
55328;SDS011;41205;44.264;19.884;2023-02-03T10:28:22;7.57;;;4.72;;
55328;SDS011;41205;44.264;19.884;2023-02-03T10:31:00;5.32;;;4.43;;
55328;SDS011;41205;44.264;19.884;2023-02-03T10:33:32;14.13;;;10.35;;
55328;SDS011;41205;44.264;19.884;2023-02-03T10:36:03;11.73;;;9.07;;
55328;SDS011;41205;44.264;19.884;2023-02-03T10:41:44;15.75;;;11.23;;
55328;SDS011;41205;44.264;19.884;2023-02-03T10:44:11;9.68;;;7.35;;
55328;SDS011;41205;44.264;19.884;2023-02-03T10:46:38;5.65;;;3.22;;
55328;SDS011;41205;44.264;19.884;2023-02-03T10:49:07;21.15;;;19.05;;
55328;SDS011;41205;44.264;19.884;2023-02-03T10:51:38;8.32;;;4.18;;
55328;SDS011;41205;44.264;19.884;2023-02-03T10:54:28;12.55;;;7.70;;
55328;SDS011;41205;44.264;19.884;2023-02-03T10:57:02;6.50;;;4.35;;
55328;SDS011;41205;44.264;19.884;2023-02-03T10:59:44;9.57;;;4.80;;
55328;SDS011;41205;44.264;19.884;2023-02-03T11:02:27;7.85;;;4.30;;
55328;SDS011;41205;44.264;19.884;2023-02-03T11:07:41;6.10;;;3.22;;
55328;SDS011;41205;44.264;19.884;2023-02-03T11:13:20;7.30;;;3.75;;
55328;SDS011;41205;44.264;19.884;2023-02-03T11:21:20;8.05;;;6.15;;
55328;SDS011;41205;44.264;19.884;2023-02-03T11:23:56;8.55;;;2.70;;
55328;SDS011;41205;44.264;19.884;2023-02-03T11:26:35;9.77;;;6.88;;
55328;SDS011;41205;44.264;19.884;2023-02-03T11:29:12;9.20;;;7.13;;
55328;SDS011;41205;44.264;19.884;2023-02-03T11:31:42;23.45;;;19.35;;
55328;SDS011;41205;44.264;19.884;2023-02-03T11:34:15;12.70;;;9.45;;
55328;SDS011;41205;44.264;19.884;2023-02-03T11:36:43;15.60;;;9.75;;
55328;SDS011;41205;44.264;19.884;2023-02-03T11:39:10;13.60;;;9.93;;
55328;SDS011;41205;44.264;19.884;2023-02-03T11:41:40;6.55;;;3.47;;
55328;SDS011;41205;44.264;19.884;2023-02-03T11:44:25;12.70;;;8.85;;
55328;SDS011;41205;44.264;19.884;2023-02-03T11:46:56;15.27;;;11.80;;
55328;SDS011;41205;44.264;19.884;2023-02-03T12:03:01;23.20;;;13.52;;
55328;SDS011;41205;44.264;19.884;2023-02-03T12:10:46;4.53;;;2.63;;
55328;SDS011;41205;44.264;19.884;2023-02-03T12:30:13;4.45;;;2.47;;
55328;SDS011;41205;44.264;19.884;2023-02-03T12:35:31;12.43;;;8.52;;
55328;SDS011;41205;44.264;19.884;2023-02-03T12:38:15;10.45;;;7.05;;
55328;SDS011;41205;44.264;19.884;2023-02-03T12:41:00;25.10;;;16.90;;
55328;SDS011;41205;44.264;19.884;2023-02-03T12:43:39;14.20;;;9.80;;
55328;SDS011;41205;44.264;19.884;2023-02-03T12:51:14;4.53;;;2.72;;
55328;SDS011;41205;44.264;19.884;2023-02-03T12:54:01;5.43;;;2.30;;
55328;SDS011;41205;44.264;19.884;2023-02-03T12:56:36;4.07;;;2.33;;
55328;SDS011;41205;44.264;19.884;2023-02-03T12:59:25;10.98;;;8.75;;
55328;SDS011;41205;44.264;19.884;2023-02-03T13:01:58;43.33;;;31.35;;
55328;SDS011;41205;44.264;19.884;2023-02-03T13:07:35;4.68;;;3.10;;
55328;SDS011;41205;44.264;19.884;2023-02-03T13:10:13;14.13;;;10.43;;
55328;SDS011;41205;44.264;19.884;2023-02-03T13:12:48;7.80;;;3.08;;
55328;SDS011;41205;44.264;19.884;2023-02-03T13:18:19;12.90;;;9.75;;
55328;SDS011;41205;44.264;19.884;2023-02-03T13:20:51;4.90;;;3.13;;
55328;SDS011;41205;44.264;19.884;2023-02-03T13:23:20;4.00;;;2.28;;
55328;SDS011;41205;44.264;19.884;2023-02-03T13:33:51;18.52;;;9.68;;
55328;SDS011;41205;44.264;19.884;2023-02-03T13:44:37;8.70;;;6.93;;
55328;SDS011;41205;44.264;19.884;2023-02-03T13:47:05;65.63;;;45.83;;
55328;SDS011;41205;44.264;19.884;2023-02-03T13:49:39;9.18;;;4.90;;
55328;SDS011;41205;44.264;19.884;2023-02-03T13:52:23;70.07;;;49.55;;
55328;SDS011;41205;44.264;19.884;2023-02-03T13:54:51;27.42;;;17.83;;
55328;SDS011;41205;44.264;19.884;2023-02-03T13:57:28;21.50;;;14.85;;
55328;SDS011;41205;44.264;19.884;2023-02-03T13:59:58;13.65;;;9.30;;
55328;SDS011;41205;44.264;19.884;2023-02-03T14:04:54;26.35;;;17.92;;
55328;SDS011;41205;44.264;19.884;2023-02-03T14:10:25;54.67;;;31.63;;
55328;SDS011;41205;44.264;19.884;2023-02-03T14:25:28;48.22;;;34.45;;
55328;SDS011;41205;44.264;19.884;2023-02-03T14:28:02;31.20;;;20.58;;
55328;SDS011;41205;44.264;19.884;2023-02-03T14:30:31;211.05;;;173.63;;
55328;SDS011;41205;44.264;19.884;2023-02-03T14:32:58;476.58;;;328.10;;
55328;SDS011;41205;44.264;19.884;2023-02-03T14:35:36;563.80;;;391.85;;
55328;SDS011;41205;44.264;19.884;2023-02-03T14:38:10;413.45;;;258.23;;
55328;SDS011;41205;44.264;19.884;2023-02-03T14:49:01;222.02;;;153.00;;
55328;SDS011;41205;44.264;19.884;2023-02-03T14:54:31;67.85;;;40.42;;
55328;SDS011;41205;44.264;19.884;2023-02-03T15:04:38;92.20;;;60.95;;
55328;SDS011;41205;44.264;19.884;2023-02-03T15:07:04;118.63;;;74.18;;
55328;SDS011;41205;44.264;19.884;2023-02-03T15:12:13;105.07;;;72.70;;
55328;SDS011;41205;44.264;19.884;2023-02-03T15:14:44;98.97;;;65.35;;
55328;SDS011;41205;44.264;19.884;2023-02-03T15:17:11;147.00;;;102.20;;
55328;SDS011;41205;44.264;19.884;2023-02-03T15:19:44;149.20;;;107.13;;
55328;SDS011;41205;44.264;19.884;2023-02-03T15:22:28;170.25;;;107.30;;
55328;SDS011;41205;44.264;19.884;2023-02-03T15:24:58;172.48;;;117.88;;
55328;SDS011;41205;44.264;19.884;2023-02-03T15:27:29;152.60;;;110.30;;
55328;SDS011;41205;44.264;19.884;2023-02-03T15:29:56;178.13;;;126.05;;
55328;SDS011;41205;44.264;19.884;2023-02-03T15:35:00;150.65;;;112.47;;
55328;SDS011;41205;44.264;19.884;2023-02-03T15:40:21;476.30;;;275.27;;
55328;SDS011;41205;44.264;19.884;2023-02-03T15:51:43;295.52;;;186.95;;
55328;SDS011;41205;44.264;19.884;2023-02-03T15:54:19;162.25;;;110.03;;
55328;SDS011;41205;44.264;19.884;2023-02-03T15:57:03;79.03;;;54.55;;
55328;SDS011;41205;44.264;19.884;2023-02-03T15:59:42;89.03;;;59.17;;
55328;SDS011;41205;44.264;19.884;2023-02-03T16:02:14;104.60;;;68.68;;
55328;SDS011;41205;44.264;19.884;2023-02-03T16:04:43;95.30;;;57.50;;
55328;SDS011;41205;44.264;19.884;2023-02-03T16:07:14;90.85;;;59.60;;
55328;SDS011;41205;44.264;19.884;2023-02-03T16:09:53;86.88;;;59.30;;
55328;SDS011;41205;44.264;19.884;2023-02-03T16:12:26;125.03;;;81.18;;
55328;SDS011;41205;44.264;19.884;2023-02-03T16:14:59;204.05;;;134.05;;
55328;SDS011;41205;44.264;19.884;2023-02-03T16:20:30;256.58;;;154.18;;
55328;SDS011;41205;44.264;19.884;2023-02-03T16:23:25;393.23;;;263.02;;
55328;SDS011;41205;44.264;19.884;2023-02-03T16:26:22;357.30;;;241.35;;
55328;SDS011;41205;44.264;19.884;2023-02-03T16:28:42;191.63;;;130.00;;
55328;SDS011;41205;44.264;19.884;2023-02-03T16:31:27;103.25;;;76.10;;
55328;SDS011;41205;44.264;19.884;2023-02-03T16:37:00;258.05;;;174.15;;
55328;SDS011;41205;44.264;19.884;2023-02-03T16:39:44;280.85;;;193.68;;
55328;SDS011;41205;44.264;19.884;2023-02-03T16:42:35;336.63;;;229.82;;
55328;SDS011;41205;44.264;19.884;2023-02-03T16:45:22;447.58;;;315.45;;
55328;SDS011;41205;44.264;19.884;2023-02-03T16:48:08;245.13;;;172.68;;
55328;SDS011;41205;44.264;19.884;2023-02-03T16:50:54;258.00;;;172.50;;
55328;SDS011;41205;44.264;19.884;2023-02-03T16:55:48;264.05;;;169.38;;
55328;SDS011;41205;44.264;19.884;2023-02-03T16:58:15;223.40;;;150.65;;
55328;SDS011;41205;44.264;19.884;2023-02-03T17:00:42;174.82;;;117.93;;
55328;SDS011;41205;44.264;19.884;2023-02-03T17:03:12;89.75;;;57.28;;
55328;SDS011;41205;44.264;19.884;2023-02-03T17:05:40;56.10;;;37.10;;
55328;SDS011;41205;44.264;19.884;2023-02-03T17:08:07;66.13;;;42.50;;
55328;SDS011;41205;44.264;19.884;2023-02-03T17:10:33;68.45;;;41.15;;
55328;SDS011;41205;44.264;19.884;2023-02-03T17:13:00;233.25;;;146.40;;
55328;SDS011;41205;44.264;19.884;2023-02-03T17:15:25;477.48;;;303.30;;
55328;SDS011;41205;44.264;19.884;2023-02-03T17:17:51;575.10;;;410.70;;
55328;SDS011;41205;44.264;19.884;2023-02-03T17:20:17;562.78;;;401.73;;
55328;SDS011;41205;44.264;19.884;2023-02-03T17:22:43;550.28;;;393.10;;
55328;SDS011;41205;44.264;19.884;2023-02-03T17:25:09;539.22;;;391.40;;
55328;SDS011;41205;44.264;19.884;2023-02-03T17:27:34;501.65;;;357.58;;
55328;SDS011;41205;44.264;19.884;2023-02-03T17:30:00;495.83;;;347.98;;
55328;SDS011;41205;44.264;19.884;2023-02-03T17:32:26;476.55;;;327.95;;